sensor_id;sensor_type;location;lat;lon;timestamp;P1;durP1;ratioP1;P2;durP2;ratioP2
5823;SDS011;2938;52.254;12.988;2022-07-26T00:01:40;14.15;;;10.93;;
5823;SDS011;2938;52.254;12.988;2022-07-26T00:04:07;12.55;;;11.23;;
5823;SDS011;2938;52.254;12.988;2022-07-26T00:06:34;15.55;;;11.48;;
5823;SDS011;2938;52.254;12.988;2022-07-26T00:09:02;13.63;;;10.25;;
5823;SDS011;2938;52.254;12.988;2022-07-26T00:11:29;13.27;;;11.88;;
5823;SDS011;2938;52.254;12.988;2022-07-26T00:13:57;12.13;;;10.93;;
5823;SDS011;2938;52.254;12.988;2022-07-26T00:16:24;13.32;;;11.35;;
5823;SDS011;2938;52.254;12.988;2022-07-26T00:18:51;21.23;;;12.32;;
5823;SDS011;2938;52.254;12.988;2022-07-26T00:21:17;13.95;;;11.43;;
5823;SDS011;2938;52.254;12.988;2022-07-26T00:23:43;12.23;;;10.65;;
5823;SDS011;2938;52.254;12.988;2022-07-26T00:26:11;13.07;;;9.60;;
5823;SDS011;2938;52.254;12.988;2022-07-26T00:28:38;18.70;;;11.52;;
5823;SDS011;2938;52.254;12.988;2022-07-26T00:31:05;16.67;;;11.90;;
5823;SDS011;2938;52.254;12.988;2022-07-26T00:33:31;12.77;;;11.50;;
5823;SDS011;2938;52.254;12.988;2022-07-26T00:35:58;19.73;;;11.45;;
5823;SDS011;2938;52.254;12.988;2022-07-26T00:38:24;17.00;;;12.23;;
5823;SDS011;2938;52.254;12.988;2022-07-26T00:40:51;13.57;;;12.27;;
5823;SDS011;2938;52.254;12.988;2022-07-26T00:43:19;14.85;;;11.52;;
5823;SDS011;2938;52.254;12.988;2022-07-26T00:45:45;13.15;;;11.95;;
5823;SDS011;2938;52.254;12.988;2022-07-26T00:48:13;16.73;;;13.00;;
5823;SDS011;2938;52.254;12.988;2022-07-26T00:50:39;16.95;;;13.02;;
5823;SDS011;2938;52.254;12.988;2022-07-26T00:53:05;16.75;;;12.75;;
5823;SDS011;2938;52.254;12.988;2022-07-26T00:55:32;15.13;;;12.82;;
5823;SDS011;2938;52.254;12.988;2022-07-26T00:57:58;15.35;;;13.68;;
5823;SDS011;2938;52.254;12.988;2022-07-26T01:00:27;14.30;;;12.90;;
5823;SDS011;2938;52.254;12.988;2022-07-26T01:02:55;15.32;;;12.85;;
5823;SDS011;2938;52.254;12.988;2022-07-26T01:05:22;29.67;;;14.27;;
5823;SDS011;2938;52.254;12.988;2022-07-26T01:07:49;17.13;;;14.45;;
5823;SDS011;2938;52.254;12.988;2022-07-26T01:10:16;16.13;;;13.23;;
5823;SDS011;2938;52.254;12.988;2022-07-26T01:12:43;16.83;;;14.10;;
5823;SDS011;2938;52.254;12.988;2022-07-26T01:15:10;15.00;;;12.73;;
5823;SDS011;2938;52.254;12.988;2022-07-26T01:17:38;15.18;;;11.48;;
5823;SDS011;2938;52.254;12.988;2022-07-26T01:20:06;15.43;;;12.60;;
5823;SDS011;2938;52.254;12.988;2022-07-26T01:22:35;18.08;;;14.07;;
5823;SDS011;2938;52.254;12.988;2022-07-26T01:25:02;14.93;;;13.32;;
5823;SDS011;2938;52.254;12.988;2022-07-26T01:28:17;18.65;;;13.57;;
5823;SDS011;2938;52.254;12.988;2022-07-26T01:30:46;17.67;;;13.57;;
5823;SDS011;2938;52.254;12.988;2022-07-26T01:33:12;16.00;;;13.90;;
5823;SDS011;2938;52.254;12.988;2022-07-26T01:35:39;13.60;;;12.20;;
5823;SDS011;2938;52.254;12.988;2022-07-26T01:38:06;13.80;;;12.40;;
5823;SDS011;2938;52.254;12.988;2022-07-26T01:40:33;16.17;;;12.55;;
5823;SDS011;2938;52.254;12.988;2022-07-26T01:42:59;17.90;;;13.43;;
5823;SDS011;2938;52.254;12.988;2022-07-26T01:45:25;16.20;;;14.05;;
5823;SDS011;2938;52.254;12.988;2022-07-26T01:47:57;18.33;;;13.98;;
5823;SDS011;2938;52.254;12.988;2022-07-26T01:50:34;16.83;;;14.15;;
5823;SDS011;2938;52.254;12.988;2022-07-26T01:55:50;17.35;;;13.63;;
5823;SDS011;2938;52.254;12.988;2022-07-26T01:58:16;15.27;;;13.57;;
5823;SDS011;2938;52.254;12.988;2022-07-26T02:00:43;18.42;;;15.10;;
5823;SDS011;2938;52.254;12.988;2022-07-26T02:03:09;17.02;;;13.15;;
5823;SDS011;2938;52.254;12.988;2022-07-26T02:05:36;14.32;;;12.68;;
5823;SDS011;2938;52.254;12.988;2022-07-26T02:08:02;19.35;;;13.38;;
5823;SDS011;2938;52.254;12.988;2022-07-26T02:10:31;19.85;;;14.52;;
5823;SDS011;2938;52.254;12.988;2022-07-26T02:13:11;16.58;;;14.27;;
5823;SDS011;2938;52.254;12.988;2022-07-26T02:15:38;15.23;;;13.63;;
5823;SDS011;2938;52.254;12.988;2022-07-26T02:18:04;18.02;;;15.25;;
5823;SDS011;2938;52.254;12.988;2022-07-26T02:20:31;15.02;;;12.85;;
5823;SDS011;2938;52.254;12.988;2022-07-26T02:22:57;17.58;;;14.32;;
5823;SDS011;2938;52.254;12.988;2022-07-26T02:25:23;16.88;;;14.85;;
5823;SDS011;2938;52.254;12.988;2022-07-26T02:27:51;17.48;;;14.98;;
5823;SDS011;2938;52.254;12.988;2022-07-26T02:30:19;16.77;;;12.90;;
5823;SDS011;2938;52.254;12.988;2022-07-26T02:32:45;18.60;;;14.00;;
5823;SDS011;2938;52.254;12.988;2022-07-26T02:35:12;18.38;;;14.10;;
5823;SDS011;2938;52.254;12.988;2022-07-26T02:37:38;17.83;;;14.50;;
5823;SDS011;2938;52.254;12.988;2022-07-26T02:40:06;18.67;;;13.77;;
5823;SDS011;2938;52.254;12.988;2022-07-26T02:42:33;19.98;;;13.45;;
5823;SDS011;2938;52.254;12.988;2022-07-26T02:45:03;20.40;;;14.68;;
5823;SDS011;2938;52.254;12.988;2022-07-26T02:47:30;16.40;;;14.70;;
5823;SDS011;2938;52.254;12.988;2022-07-26T02:49:59;20.20;;;15.82;;
5823;SDS011;2938;52.254;12.988;2022-07-26T02:52:25;16.70;;;15.10;;
5823;SDS011;2938;52.254;12.988;2022-07-26T02:54:51;18.05;;;14.27;;
5823;SDS011;2938;52.254;12.988;2022-07-26T03:00:51;16.77;;;15.17;;
5823;SDS011;2938;52.254;12.988;2022-07-26T03:03:18;17.05;;;15.30;;
5823;SDS011;2938;52.254;12.988;2022-07-26T03:05:44;24.17;;;15.80;;
5823;SDS011;2938;52.254;12.988;2022-07-26T03:08:11;22.17;;;15.48;;
5823;SDS011;2938;52.254;12.988;2022-07-26T03:10:38;15.40;;;13.80;;
5823;SDS011;2938;52.254;12.988;2022-07-26T03:13:04;17.55;;;15.18;;
5823;SDS011;2938;52.254;12.988;2022-07-26T03:15:31;16.65;;;14.90;;
5823;SDS011;2938;52.254;12.988;2022-07-26T03:17:58;17.58;;;13.93;;
5823;SDS011;2938;52.254;12.988;2022-07-26T03:20:25;19.38;;;15.32;;
5823;SDS011;2938;52.254;12.988;2022-07-26T03:22:51;20.10;;;15.90;;
5823;SDS011;2938;52.254;12.988;2022-07-26T03:25:18;19.80;;;15.20;;
5823;SDS011;2938;52.254;12.988;2022-07-26T03:27:44;15.80;;;14.25;;
5823;SDS011;2938;52.254;12.988;2022-07-26T03:30:11;17.33;;;15.10;;
5823;SDS011;2938;52.254;12.988;2022-07-26T03:35:40;17.58;;;13.50;;
5823;SDS011;2938;52.254;12.988;2022-07-26T03:38:06;22.55;;;15.93;;
5823;SDS011;2938;52.254;12.988;2022-07-26T03:40:33;20.92;;;15.15;;
5823;SDS011;2938;52.254;12.988;2022-07-26T03:42:59;16.73;;;14.95;;
5823;SDS011;2938;52.254;12.988;2022-07-26T03:45:25;21.08;;;14.70;;
5823;SDS011;2938;52.254;12.988;2022-07-26T03:47:53;17.80;;;15.95;;
5823;SDS011;2938;52.254;12.988;2022-07-26T03:50:23;17.02;;;15.07;;
5823;SDS011;2938;52.254;12.988;2022-07-26T03:52:52;16.00;;;14.40;;
5823;SDS011;2938;52.254;12.988;2022-07-26T03:55:19;16.98;;;14.15;;
5823;SDS011;2938;52.254;12.988;2022-07-26T03:58:15;17.75;;;15.38;;
5823;SDS011;2938;52.254;12.988;2022-07-26T04:00:43;15.02;;;13.45;;
5823;SDS011;2938;52.254;12.988;2022-07-26T04:03:09;29.13;;;15.52;;
5823;SDS011;2938;52.254;12.988;2022-07-26T04:05:37;16.10;;;13.60;;
5823;SDS011;2938;52.254;12.988;2022-07-26T04:08:03;27.15;;;15.50;;
5823;SDS011;2938;52.254;12.988;2022-07-26T04:10:32;22.88;;;13.93;;
5823;SDS011;2938;52.254;12.988;2022-07-26T04:12:58;15.75;;;12.98;;
5823;SDS011;2938;52.254;12.988;2022-07-26T04:15:25;18.27;;;12.90;;
5823;SDS011;2938;52.254;12.988;2022-07-26T04:17:51;16.02;;;13.73;;
5823;SDS011;2938;52.254;12.988;2022-07-26T04:20:18;14.02;;;12.57;;
5823;SDS011;2938;52.254;12.988;2022-07-26T04:22:45;16.75;;;12.30;;
5823;SDS011;2938;52.254;12.988;2022-07-26T04:25:15;18.23;;;13.25;;
5823;SDS011;2938;52.254;12.988;2022-07-26T04:27:54;19.92;;;13.98;;
5823;SDS011;2938;52.254;12.988;2022-07-26T04:30:33;17.17;;;13.38;;
5823;SDS011;2938;52.254;12.988;2022-07-26T04:33:02;20.77;;;12.93;;
5823;SDS011;2938;52.254;12.988;2022-07-26T04:35:29;17.17;;;11.85;;
5823;SDS011;2938;52.254;12.988;2022-07-26T04:41:04;14.32;;;11.73;;
5823;SDS011;2938;52.254;12.988;2022-07-26T04:43:44;15.65;;;11.20;;
5823;SDS011;2938;52.254;12.988;2022-07-26T04:46:19;14.38;;;9.70;;
5823;SDS011;2938;52.254;12.988;2022-07-26T04:48:59;13.50;;;10.15;;
5823;SDS011;2938;52.254;12.988;2022-07-26T04:58:20;24.10;;;11.10;;
5823;SDS011;2938;52.254;12.988;2022-07-26T05:01:04;18.45;;;11.00;;
5823;SDS011;2938;52.254;12.988;2022-07-26T05:03:44;11.93;;;10.13;;
5823;SDS011;2938;52.254;12.988;2022-07-26T05:06:27;15.20;;;8.98;;
5823;SDS011;2938;52.254;12.988;2022-07-26T05:09:25;14.20;;;9.98;;
5823;SDS011;2938;52.254;12.988;2022-07-26T05:14:57;14.43;;;9.80;;
5823;SDS011;2938;52.254;12.988;2022-07-26T05:17:27;17.00;;;8.05;;
5823;SDS011;2938;52.254;12.988;2022-07-26T05:19:59;12.38;;;7.45;;
5823;SDS011;2938;52.254;12.988;2022-07-26T05:25:40;11.48;;;9.13;;
5823;SDS011;2938;52.254;12.988;2022-07-26T05:31:02;10.13;;;8.15;;
5823;SDS011;2938;52.254;12.988;2022-07-26T05:33:29;11.15;;;7.35;;
5823;SDS011;2938;52.254;12.988;2022-07-26T05:36:38;12.07;;;7.00;;
5823;SDS011;2938;52.254;12.988;2022-07-26T05:39:09;11.32;;;6.72;;
5823;SDS011;2938;52.254;12.988;2022-07-26T05:41:45;14.73;;;6.78;;
5823;SDS011;2938;52.254;12.988;2022-07-26T05:44:29;9.43;;;6.72;;
5823;SDS011;2938;52.254;12.988;2022-07-26T05:46:58;18.25;;;7.25;;
5823;SDS011;2938;52.254;12.988;2022-07-26T05:49:24;10.40;;;6.03;;
5823;SDS011;2938;52.254;12.988;2022-07-26T05:51:51;9.18;;;5.82;;
5823;SDS011;2938;52.254;12.988;2022-07-26T05:54:17;9.20;;;5.50;;
5823;SDS011;2938;52.254;12.988;2022-07-26T05:56:45;8.40;;;5.45;;
5823;SDS011;2938;52.254;12.988;2022-07-26T05:59:12;10.43;;;4.93;;
5823;SDS011;2938;52.254;12.988;2022-07-26T06:01:39;5.10;;;4.60;;
5823;SDS011;2938;52.254;12.988;2022-07-26T06:04:06;9.68;;;4.97;;
5823;SDS011;2938;52.254;12.988;2022-07-26T06:06:33;7.28;;;4.38;;
5823;SDS011;2938;52.254;12.988;2022-07-26T06:08:59;11.50;;;5.32;;
5823;SDS011;2938;52.254;12.988;2022-07-26T06:11:25;11.77;;;5.55;;
5823;SDS011;2938;52.254;12.988;2022-07-26T06:13:52;8.85;;;4.13;;
5823;SDS011;2938;52.254;12.988;2022-07-26T06:16:18;12.55;;;5.25;;
5823;SDS011;2938;52.254;12.988;2022-07-26T06:18:46;7.88;;;5.05;;
5823;SDS011;2938;52.254;12.988;2022-07-26T06:21:12;11.25;;;3.83;;
5823;SDS011;2938;52.254;12.988;2022-07-26T06:23:39;8.98;;;4.43;;
5823;SDS011;2938;52.254;12.988;2022-07-26T06:26:05;6.63;;;4.20;;
5823;SDS011;2938;52.254;12.988;2022-07-26T06:28:31;10.60;;;4.72;;
5823;SDS011;2938;52.254;12.988;2022-07-26T06:30:58;8.35;;;4.57;;
5823;SDS011;2938;52.254;12.988;2022-07-26T06:33:25;10.30;;;3.95;;
5823;SDS011;2938;52.254;12.988;2022-07-26T06:35:52;5.85;;;4.15;;
5823;SDS011;2938;52.254;12.988;2022-07-26T06:38:19;9.73;;;4.57;;
5823;SDS011;2938;52.254;12.988;2022-07-26T06:40:45;4.93;;;3.67;;
5823;SDS011;2938;52.254;12.988;2022-07-26T06:43:11;9.98;;;4.10;;
5823;SDS011;2938;52.254;12.988;2022-07-26T06:45:38;9.07;;;4.53;;
5823;SDS011;2938;52.254;12.988;2022-07-26T06:48:04;5.25;;;3.05;;
5823;SDS011;2938;52.254;12.988;2022-07-26T06:50:31;7.97;;;4.05;;
5823;SDS011;2938;52.254;12.988;2022-07-26T06:52:59;10.77;;;3.78;;
5823;SDS011;2938;52.254;12.988;2022-07-26T06:55:25;11.52;;;4.50;;
5823;SDS011;2938;52.254;12.988;2022-07-26T06:57:51;19.45;;;4.78;;
5823;SDS011;2938;52.254;12.988;2022-07-26T07:00:18;8.45;;;3.15;;
5823;SDS011;2938;52.254;12.988;2022-07-26T07:02:45;9.52;;;3.85;;
5823;SDS011;2938;52.254;12.988;2022-07-26T07:05:12;7.35;;;3.63;;
5823;SDS011;2938;52.254;12.988;2022-07-26T07:07:39;5.10;;;3.53;;
5823;SDS011;2938;52.254;12.988;2022-07-26T07:10:07;5.25;;;3.00;;
5823;SDS011;2938;52.254;12.988;2022-07-26T07:12:34;9.57;;;4.00;;
5823;SDS011;2938;52.254;12.988;2022-07-26T07:15:04;7.38;;;2.85;;
5823;SDS011;2938;52.254;12.988;2022-07-26T07:17:31;8.82;;;2.88;;
5823;SDS011;2938;52.254;12.988;2022-07-26T07:19:58;6.15;;;2.85;;
5823;SDS011;2938;52.254;12.988;2022-07-26T07:22:25;8.93;;;3.28;;
5823;SDS011;2938;52.254;12.988;2022-07-26T07:24:51;6.18;;;2.58;;
5823;SDS011;2938;52.254;12.988;2022-07-26T07:27:19;7.32;;;2.70;;
5823;SDS011;2938;52.254;12.988;2022-07-26T07:29:45;10.65;;;2.92;;
5823;SDS011;2938;52.254;12.988;2022-07-26T07:32:11;4.13;;;2.78;;
5823;SDS011;2938;52.254;12.988;2022-07-26T07:34:38;7.85;;;3.15;;
5823;SDS011;2938;52.254;12.988;2022-07-26T07:37:04;8.77;;;3.30;;
5823;SDS011;2938;52.254;12.988;2022-07-26T07:39:30;5.13;;;2.00;;
5823;SDS011;2938;52.254;12.988;2022-07-26T07:41:57;9.25;;;3.40;;
5823;SDS011;2938;52.254;12.988;2022-07-26T07:44:25;5.90;;;3.05;;
5823;SDS011;2938;52.254;12.988;2022-07-26T07:46:51;6.25;;;2.97;;
5823;SDS011;2938;52.254;12.988;2022-07-26T07:49:17;6.32;;;2.88;;
5823;SDS011;2938;52.254;12.988;2022-07-26T07:51:44;3.47;;;2.42;;
5823;SDS011;2938;52.254;12.988;2022-07-26T07:54:10;16.33;;;3.40;;
5823;SDS011;2938;52.254;12.988;2022-07-26T07:56:38;5.72;;;3.28;;
5823;SDS011;2938;52.254;12.988;2022-07-26T07:59:04;6.35;;;2.58;;
5823;SDS011;2938;52.254;12.988;2022-07-26T08:01:32;9.15;;;2.45;;
5823;SDS011;2938;52.254;12.988;2022-07-26T08:03:58;6.47;;;2.15;;
5823;SDS011;2938;52.254;12.988;2022-07-26T08:06:25;3.35;;;1.83;;
5823;SDS011;2938;52.254;12.988;2022-07-26T08:08:51;9.93;;;2.58;;
5823;SDS011;2938;52.254;12.988;2022-07-26T08:11:18;9.02;;;2.38;;
5823;SDS011;2938;52.254;12.988;2022-07-26T08:13:44;8.15;;;2.20;;
5823;SDS011;2938;52.254;12.988;2022-07-26T08:16:11;7.63;;;2.28;;
5823;SDS011;2938;52.254;12.988;2022-07-26T08:18:38;8.88;;;2.75;;
5823;SDS011;2938;52.254;12.988;2022-07-26T08:21:05;3.60;;;2.13;;
5823;SDS011;2938;52.254;12.988;2022-07-26T08:23:32;24.80;;;2.85;;
5823;SDS011;2938;52.254;12.988;2022-07-26T08:25:58;5.78;;;2.08;;
5823;SDS011;2938;52.254;12.988;2022-07-26T08:28:25;12.63;;;2.22;;
5823;SDS011;2938;52.254;12.988;2022-07-26T08:30:52;5.03;;;2.47;;
5823;SDS011;2938;52.254;12.988;2022-07-26T08:33:18;10.52;;;2.67;;
5823;SDS011;2938;52.254;12.988;2022-07-26T08:35:46;4.38;;;1.75;;
5823;SDS011;2938;52.254;12.988;2022-07-26T08:38:13;8.43;;;2.58;;
5823;SDS011;2938;52.254;12.988;2022-07-26T08:40:39;3.53;;;1.70;;
5823;SDS011;2938;52.254;12.988;2022-07-26T08:43:05;2.30;;;1.55;;
5823;SDS011;2938;52.254;12.988;2022-07-26T08:45:32;4.75;;;2.00;;
5823;SDS011;2938;52.254;12.988;2022-07-26T08:47:59;6.68;;;2.40;;
5823;SDS011;2938;52.254;12.988;2022-07-26T08:50:26;7.45;;;1.90;;
5823;SDS011;2938;52.254;12.988;2022-07-26T08:52:54;8.40;;;1.88;;
5823;SDS011;2938;52.254;12.988;2022-07-26T08:55:26;5.45;;;2.13;;
5823;SDS011;2938;52.254;12.988;2022-07-26T08:57:52;17.67;;;1.92;;
5823;SDS011;2938;52.254;12.988;2022-07-26T09:00:20;6.45;;;2.17;;
5823;SDS011;2938;52.254;12.988;2022-07-26T09:02:48;2.90;;;1.67;;
5823;SDS011;2938;52.254;12.988;2022-07-26T09:05:18;2.08;;;1.25;;
5823;SDS011;2938;52.254;12.988;2022-07-26T09:07:45;10.25;;;1.73;;
5823;SDS011;2938;52.254;12.988;2022-07-26T09:10:13;6.25;;;1.88;;
5823;SDS011;2938;52.254;12.988;2022-07-26T09:12:40;7.47;;;2.05;;
5823;SDS011;2938;52.254;12.988;2022-07-26T09:15:16;7.05;;;2.17;;
5823;SDS011;2938;52.254;12.988;2022-07-26T09:17:45;1.52;;;1.27;;
5823;SDS011;2938;52.254;12.988;2022-07-26T09:20:13;3.80;;;1.30;;
5823;SDS011;2938;52.254;12.988;2022-07-26T09:22:54;7.55;;;2.15;;
5823;SDS011;2938;52.254;12.988;2022-07-26T09:25:23;4.40;;;1.50;;
5823;SDS011;2938;52.254;12.988;2022-07-26T09:27:50;3.72;;;1.73;;
5823;SDS011;2938;52.254;12.988;2022-07-26T09:30:17;4.43;;;2.05;;
5823;SDS011;2938;52.254;12.988;2022-07-26T09:32:54;6.22;;;1.80;;
5823;SDS011;2938;52.254;12.988;2022-07-26T09:35:22;8.07;;;2.47;;
5823;SDS011;2938;52.254;12.988;2022-07-26T09:37:49;5.93;;;2.08;;
5823;SDS011;2938;52.254;12.988;2022-07-26T09:40:15;4.15;;;1.85;;
5823;SDS011;2938;52.254;12.988;2022-07-26T09:42:53;5.65;;;1.98;;
5823;SDS011;2938;52.254;12.988;2022-07-26T09:45:21;2.75;;;1.30;;
5823;SDS011;2938;52.254;12.988;2022-07-26T09:47:47;10.10;;;2.45;;
5823;SDS011;2938;52.254;12.988;2022-07-26T09:50:14;2.03;;;1.70;;
5823;SDS011;2938;52.254;12.988;2022-07-26T09:52:58;3.47;;;1.77;;
5823;SDS011;2938;52.254;12.988;2022-07-26T09:55:26;5.22;;;1.70;;
5823;SDS011;2938;52.254;12.988;2022-07-26T09:57:57;3.33;;;2.05;;
5823;SDS011;2938;52.254;12.988;2022-07-26T10:00:28;3.97;;;1.50;;
5823;SDS011;2938;52.254;12.988;2022-07-26T10:02:55;7.03;;;1.85;;
5823;SDS011;2938;52.254;12.988;2022-07-26T10:05:21;5.25;;;1.50;;
5823;SDS011;2938;52.254;12.988;2022-07-26T10:07:49;8.90;;;1.73;;
5823;SDS011;2938;52.254;12.988;2022-07-26T10:10:24;5.53;;;1.75;;
5823;SDS011;2938;52.254;12.988;2022-07-26T10:12:53;11.13;;;1.92;;
5823;SDS011;2938;52.254;12.988;2022-07-26T10:15:38;5.03;;;1.83;;
5823;SDS011;2938;52.254;12.988;2022-07-26T10:21:21;11.90;;;2.15;;
5823;SDS011;2938;52.254;12.988;2022-07-26T10:23:49;5.00;;;2.35;;
5823;SDS011;2938;52.254;12.988;2022-07-26T10:29:26;3.47;;;1.70;;
5823;SDS011;2938;52.254;12.988;2022-07-26T10:32:13;3.75;;;1.67;;
5823;SDS011;2938;52.254;12.988;2022-07-26T10:34:44;2.58;;;1.50;;
5823;SDS011;2938;52.254;12.988;2022-07-26T10:37:24;7.10;;;1.95;;
5823;SDS011;2938;52.254;12.988;2022-07-26T10:42:41;4.70;;;2.30;;
5823;SDS011;2938;52.254;12.988;2022-07-26T10:45:14;3.05;;;1.48;;
5823;SDS011;2938;52.254;12.988;2022-07-26T10:47:51;5.03;;;1.70;;
5823;SDS011;2938;52.254;12.988;2022-07-26T10:50:34;3.05;;;1.88;;
5823;SDS011;2938;52.254;12.988;2022-07-26T10:53:01;3.17;;;1.58;;
5823;SDS011;2938;52.254;12.988;2022-07-26T10:55:28;5.75;;;1.63;;
5823;SDS011;2938;52.254;12.988;2022-07-26T10:57:55;3.25;;;1.60;;
5823;SDS011;2938;52.254;12.988;2022-07-26T11:00:22;5.72;;;1.95;;
5823;SDS011;2938;52.254;12.988;2022-07-26T11:02:53;4.18;;;1.55;;
5823;SDS011;2938;52.254;12.988;2022-07-26T11:05:22;6.20;;;2.05;;
5823;SDS011;2938;52.254;12.988;2022-07-26T11:07:53;4.30;;;1.98;;
5823;SDS011;2938;52.254;12.988;2022-07-26T11:10:25;5.40;;;2.05;;
5823;SDS011;2938;52.254;12.988;2022-07-26T11:13:09;7.78;;;2.42;;
5823;SDS011;2938;52.254;12.988;2022-07-26T11:15:38;7.93;;;2.38;;
5823;SDS011;2938;52.254;12.988;2022-07-26T11:18:14;5.38;;;2.25;;
5823;SDS011;2938;52.254;12.988;2022-07-26T11:20:43;4.72;;;2.25;;
5823;SDS011;2938;52.254;12.988;2022-07-26T11:23:23;8.52;;;3.00;;
5823;SDS011;2938;52.254;12.988;2022-07-26T11:25:58;7.00;;;2.20;;
5823;SDS011;2938;52.254;12.988;2022-07-26T11:28:25;4.10;;;2.20;;
5823;SDS011;2938;52.254;12.988;2022-07-26T11:30:54;7.40;;;3.03;;
5823;SDS011;2938;52.254;12.988;2022-07-26T11:33:31;7.90;;;3.38;;
5823;SDS011;2938;52.254;12.988;2022-07-26T11:36:00;8.80;;;2.83;;
5823;SDS011;2938;52.254;12.988;2022-07-26T11:41:11;5.60;;;3.28;;
5823;SDS011;2938;52.254;12.988;2022-07-26T11:43:39;5.68;;;2.40;;
5823;SDS011;2938;52.254;12.988;2022-07-26T11:46:05;5.55;;;2.70;;
5823;SDS011;2938;52.254;12.988;2022-07-26T11:48:33;4.85;;;2.25;;
5823;SDS011;2938;52.254;12.988;2022-07-26T11:51:09;4.93;;;2.35;;
5823;SDS011;2938;52.254;12.988;2022-07-26T11:53:36;8.55;;;1.85;;
5823;SDS011;2938;52.254;12.988;2022-07-26T11:56:13;3.63;;;2.30;;
5823;SDS011;2938;52.254;12.988;2022-07-26T11:58:44;11.40;;;2.50;;
5823;SDS011;2938;52.254;12.988;2022-07-26T12:01:14;6.25;;;2.30;;
5823;SDS011;2938;52.254;12.988;2022-07-26T12:03:49;7.18;;;2.25;;
5823;SDS011;2938;52.254;12.988;2022-07-26T12:06:36;4.68;;;2.28;;
5823;SDS011;2938;52.254;12.988;2022-07-26T12:09:05;7.00;;;2.50;;
5823;SDS011;2938;52.254;12.988;2022-07-26T12:11:35;3.08;;;2.78;;
5823;SDS011;2938;52.254;12.988;2022-07-26T12:14:03;8.18;;;2.00;;
5823;SDS011;2938;52.254;12.988;2022-07-26T12:16:33;5.25;;;3.38;;
5823;SDS011;2938;52.254;12.988;2022-07-26T12:19:03;5.30;;;1.83;;
5823;SDS011;2938;52.254;12.988;2022-07-26T12:21:36;5.85;;;1.65;;
5823;SDS011;2938;52.254;12.988;2022-07-26T12:24:08;4.05;;;1.77;;
5823;SDS011;2938;52.254;12.988;2022-07-26T12:26:36;10.90;;;2.78;;
5823;SDS011;2938;52.254;12.988;2022-07-26T12:29:04;5.57;;;2.67;;
5823;SDS011;2938;52.254;12.988;2022-07-26T12:34:34;3.80;;;2.13;;
5823;SDS011;2938;52.254;12.988;2022-07-26T12:37:04;2.40;;;2.15;;
5823;SDS011;2938;52.254;12.988;2022-07-26T12:39:32;6.43;;;2.40;;
5823;SDS011;2938;52.254;12.988;2022-07-26T12:41:58;4.85;;;2.25;;
5823;SDS011;2938;52.254;12.988;2022-07-26T12:44:25;3.97;;;2.63;;
5823;SDS011;2938;52.254;12.988;2022-07-26T12:46:57;3.90;;;2.22;;
5823;SDS011;2938;52.254;12.988;2022-07-26T12:49:45;4.53;;;2.20;;
5823;SDS011;2938;52.254;12.988;2022-07-26T12:52:19;2.97;;;2.53;;
5823;SDS011;2938;52.254;12.988;2022-07-26T12:54:47;3.25;;;2.13;;
5823;SDS011;2938;52.254;12.988;2022-07-26T12:57:21;4.65;;;2.38;;
5823;SDS011;2938;52.254;12.988;2022-07-26T13:00:01;5.93;;;2.53;;
5823;SDS011;2938;52.254;12.988;2022-07-26T13:02:32;2.63;;;2.30;;
5823;SDS011;2938;52.254;12.988;2022-07-26T13:05:00;3.83;;;2.30;;
5823;SDS011;2938;52.254;12.988;2022-07-26T13:07:28;4.15;;;2.35;;
5823;SDS011;2938;52.254;12.988;2022-07-26T13:09:55;2.25;;;2.05;;
5823;SDS011;2938;52.254;12.988;2022-07-26T13:12:21;4.80;;;1.90;;
5823;SDS011;2938;52.254;12.988;2022-07-26T13:14:48;5.22;;;1.92;;
5823;SDS011;2938;52.254;12.988;2022-07-26T13:17:21;3.38;;;1.88;;
5823;SDS011;2938;52.254;12.988;2022-07-26T13:19:56;4.57;;;1.90;;
5823;SDS011;2938;52.254;12.988;2022-07-26T13:22:29;3.38;;;1.85;;
5823;SDS011;2938;52.254;12.988;2022-07-26T13:24:58;2.92;;;1.85;;
5823;SDS011;2938;52.254;12.988;2022-07-26T13:27:29;4.97;;;2.42;;
5823;SDS011;2938;52.254;12.988;2022-07-26T13:30:05;4.65;;;2.30;;
5823;SDS011;2938;52.254;12.988;2022-07-26T13:32:36;3.57;;;2.00;;
5823;SDS011;2938;52.254;12.988;2022-07-26T13:35:13;4.30;;;2.53;;
5823;SDS011;2938;52.254;12.988;2022-07-26T13:37:55;3.88;;;2.63;;
5823;SDS011;2938;52.254;12.988;2022-07-26T13:40:21;6.65;;;2.00;;
5823;SDS011;2938;52.254;12.988;2022-07-26T13:42:48;7.13;;;1.77;;
5823;SDS011;2938;52.254;12.988;2022-07-26T13:45:21;3.72;;;1.55;;
5823;SDS011;2938;52.254;12.988;2022-07-26T13:48:06;4.73;;;2.00;;
5823;SDS011;2938;52.254;12.988;2022-07-26T13:50:33;4.45;;;1.80;;
5823;SDS011;2938;52.254;12.988;2022-07-26T13:53:01;3.55;;;2.38;;
5823;SDS011;2938;52.254;12.988;2022-07-26T13:55:41;3.40;;;1.75;;
5823;SDS011;2938;52.254;12.988;2022-07-26T13:58:09;4.28;;;2.55;;
5823;SDS011;2938;52.254;12.988;2022-07-26T14:00:44;3.92;;;2.08;;
5823;SDS011;2938;52.254;12.988;2022-07-26T14:03:17;5.05;;;2.55;;
5823;SDS011;2938;52.254;12.988;2022-07-26T14:05:49;4.68;;;2.30;;
5823;SDS011;2938;52.254;12.988;2022-07-26T14:08:28;4.32;;;2.03;;
5823;SDS011;2938;52.254;12.988;2022-07-26T14:10:57;7.10;;;2.05;;
5823;SDS011;2938;52.254;12.988;2022-07-26T14:13:25;3.25;;;1.50;;
5823;SDS011;2938;52.254;12.988;2022-07-26T14:15:55;2.70;;;1.45;;
5823;SDS011;2938;52.254;12.988;2022-07-26T14:18:21;2.15;;;1.27;;
5823;SDS011;2938;52.254;12.988;2022-07-26T14:20:48;2.70;;;1.80;;
5823;SDS011;2938;52.254;12.988;2022-07-26T14:23:14;2.17;;;1.30;;
5823;SDS011;2938;52.254;12.988;2022-07-26T14:25:42;4.25;;;2.78;;
5823;SDS011;2938;52.254;12.988;2022-07-26T14:28:08;2.05;;;1.23;;
5823;SDS011;2938;52.254;12.988;2022-07-26T14:30:35;1.35;;;1.23;;
5823;SDS011;2938;52.254;12.988;2022-07-26T14:33:10;3.95;;;1.55;;
5823;SDS011;2938;52.254;12.988;2022-07-26T14:35:50;1.73;;;1.35;;
5823;SDS011;2938;52.254;12.988;2022-07-26T14:39:39;3.65;;;1.70;;
5823;SDS011;2938;52.254;12.988;2022-07-26T14:41:47;2.00;;;1.63;;
5823;SDS011;2938;52.254;12.988;2022-07-26T14:44:13;2.55;;;1.77;;
5823;SDS011;2938;52.254;12.988;2022-07-26T14:46:40;1.38;;;1.08;;
5823;SDS011;2938;52.254;12.988;2022-07-26T14:49:15;4.25;;;1.58;;
5823;SDS011;2938;52.254;12.988;2022-07-26T14:51:42;3.13;;;1.85;;
5823;SDS011;2938;52.254;12.988;2022-07-26T14:54:08;4.07;;;1.90;;
5823;SDS011;2938;52.254;12.988;2022-07-26T14:56:35;11.13;;;3.00;;
5823;SDS011;2938;52.254;12.988;2022-07-26T14:59:04;2.85;;;1.80;;
5823;SDS011;2938;52.254;12.988;2022-07-26T15:01:33;5.18;;;1.85;;
5823;SDS011;2938;52.254;12.988;2022-07-26T15:04:01;5.45;;;1.80;;
5823;SDS011;2938;52.254;12.988;2022-07-26T15:06:27;4.85;;;2.20;;
5823;SDS011;2938;52.254;12.988;2022-07-26T15:08:56;3.40;;;1.55;;
5823;SDS011;2938;52.254;12.988;2022-07-26T15:11:23;2.75;;;1.63;;
5823;SDS011;2938;52.254;12.988;2022-07-26T15:13:52;5.88;;;1.52;;
5823;SDS011;2938;52.254;12.988;2022-07-26T15:16:22;5.22;;;2.50;;
5823;SDS011;2938;52.254;12.988;2022-07-26T15:18:59;2.50;;;1.30;;
5823;SDS011;2938;52.254;12.988;2022-07-26T15:21:25;4.40;;;1.92;;
5823;SDS011;2938;52.254;12.988;2022-07-26T15:23:54;1.95;;;1.25;;
5823;SDS011;2938;52.254;12.988;2022-07-26T15:26:23;1.65;;;1.25;;
5823;SDS011;2938;52.254;12.988;2022-07-26T15:28:49;2.38;;;1.30;;
5823;SDS011;2938;52.254;12.988;2022-07-26T15:31:16;1.90;;;1.20;;
5823;SDS011;2938;52.254;12.988;2022-07-26T15:33:43;4.68;;;1.52;;
5823;SDS011;2938;52.254;12.988;2022-07-26T15:36:10;1.52;;;1.38;;
5823;SDS011;2938;52.254;12.988;2022-07-26T15:38:36;1.13;;;1.00;;
5823;SDS011;2938;52.254;12.988;2022-07-26T15:41:04;4.72;;;1.00;;
5823;SDS011;2938;52.254;12.988;2022-07-26T15:43:30;3.63;;;0.98;;
5823;SDS011;2938;52.254;12.988;2022-07-26T15:45:57;1.38;;;1.17;;
5823;SDS011;2938;52.254;12.988;2022-07-26T15:48:23;2.35;;;1.05;;